sensor_id;sensor_type;location;lat;lon;timestamp;pressure;altitude;pressure_sealevel;temperature;humidity
61488;BME280;47351;53.326;-6.298;2024-02-21T00:00:20;100908.34;;;8.15;86.29
61488;BME280;47351;53.326;-6.298;2024-02-21T00:03:16;100895.56;;;8.14;86.42
61488;BME280;47351;53.326;-6.298;2024-02-21T00:06:11;100878.00;;;8.14;86.68
61488;BME280;47351;53.326;-6.298;2024-02-21T00:09:24;100841.86;;;8.18;86.60
61488;BME280;47351;53.326;-6.298;2024-02-21T00:12:30;100821.23;;;8.22;86.44
61488;BME280;47351;53.326;-6.298;2024-02-21T00:15:22;100807.24;;;8.27;86.08
61488;BME280;47351;53.326;-6.298;2024-02-21T00:18:35;100790.96;;;8.34;85.37
61488;BME280;47351;53.326;-6.298;2024-02-21T00:21:40;100782.05;;;8.41;84.68
61488;BME280;47351;53.326;-6.298;2024-02-21T00:24:44;100771.33;;;8.45;84.42
61488;BME280;47351;53.326;-6.298;2024-02-21T00:27:36;100770.95;;;8.49;84.15
61488;BME280;47351;53.326;-6.298;2024-02-21T00:30:30;100775.16;;;8.52;84.29
61488;BME280;47351;53.326;-6.298;2024-02-21T00:33:22;100767.24;;;8.53;84.39
61488;BME280;47351;53.326;-6.298;2024-02-21T00:36:35;100762.47;;;8.52;84.62
61488;BME280;47351;53.326;-6.298;2024-02-21T00:39:37;100765.73;;;8.55;84.65
61488;BME280;47351;53.326;-6.298;2024-02-21T00:42:30;100750.42;;;8.61;84.63
61488;BME280;47351;53.326;-6.298;2024-02-21T00:45:25;100740.23;;;8.67;84.51
61488;BME280;47351;53.326;-6.298;2024-02-21T00:48:26;100730.11;;;8.73;84.71
61488;BME280;47351;53.326;-6.298;2024-02-21T00:51:32;100715.29;;;8.75;84.80
61488;BME280;47351;53.326;-6.298;2024-02-21T00:54:37;100704.35;;;8.76;84.88
61488;BME280;47351;53.326;-6.298;2024-02-21T00:58:02;100693.69;;;8.76;85.01
61488;BME280;47351;53.326;-6.298;2024-02-21T01:01:08;100697.44;;;8.76;85.24
61488;BME280;47351;53.326;-6.298;2024-02-21T01:04:20;100691.29;;;8.77;85.40
61488;BME280;47351;53.326;-6.298;2024-02-21T01:07:15;100684.34;;;8.78;85.59
61488;BME280;47351;53.326;-6.298;2024-02-21T01:10:31;100673.42;;;8.81;85.93
61488;BME280;47351;53.326;-6.298;2024-02-21T01:13:39;100659.90;;;8.83;86.03
61488;BME280;47351;53.326;-6.298;2024-02-21T01:16:52;100651.14;;;8.85;86.55
61488;BME280;47351;53.326;-6.298;2024-02-21T01:19:59;100633.75;;;8.87;86.83
61488;BME280;47351;53.326;-6.298;2024-02-21T01:22:55;100618.12;;;8.86;87.00
61488;BME280;47351;53.326;-6.298;2024-02-21T01:25:51;100610.77;;;8.85;87.19
61488;BME280;47351;53.326;-6.298;2024-02-21T01:28:58;100607.23;;;8.83;87.34
61488;BME280;47351;53.326;-6.298;2024-02-21T01:31:51;100593.94;;;8.80;87.65
61488;BME280;47351;53.326;-6.298;2024-02-21T01:35:05;100577.54;;;8.79;88.03
61488;BME280;47351;53.326;-6.298;2024-02-21T01:38:03;100566.52;;;8.77;88.38
61488;BME280;47351;53.326;-6.298;2024-02-21T01:41:16;100555.64;;;8.75;88.51
61488;BME280;47351;53.326;-6.298;2024-02-21T01:44:19;100545.18;;;8.73;88.65
61488;BME280;47351;53.326;-6.298;2024-02-21T01:47:25;100530.27;;;8.71;88.81
61488;BME280;47351;53.326;-6.298;2024-02-21T01:50:31;100515.91;;;8.69;89.07
61488;BME280;47351;53.326;-6.298;2024-02-21T01:53:32;100496.26;;;8.66;89.36
61488;BME280;47351;53.326;-6.298;2024-02-21T01:56:48;100486.55;;;8.63;89.49
61488;BME280;47351;53.326;-6.298;2024-02-21T01:59:41;100473.67;;;8.62;89.85
61488;BME280;47351;53.326;-6.298;2024-02-21T02:02:37;100453.25;;;8.62;90.21
61488;BME280;47351;53.326;-6.298;2024-02-21T02:05:49;100431.83;;;8.61;90.53
61488;BME280;47351;53.326;-6.298;2024-02-21T02:08:47;100414.25;;;8.61;90.91
61488;BME280;47351;53.326;-6.298;2024-02-21T02:11:53;100401.93;;;8.59;91.26
61488;BME280;47351;53.326;-6.298;2024-02-21T02:14:45;100381.98;;;8.58;91.56
61488;BME280;47351;53.326;-6.298;2024-02-21T02:17:52;100372.71;;;8.56;92.13
61488;BME280;47351;53.326;-6.298;2024-02-21T02:20:58;100367.84;;;8.55;92.14
61488;BME280;47351;53.326;-6.298;2024-02-21T02:24:00;100363.23;;;8.56;92.48
61488;BME280;47351;53.326;-6.298;2024-02-21T02:26:52;100348.09;;;8.59;92.92
61488;BME280;47351;53.326;-6.298;2024-02-21T02:29:58;100332.00;;;8.61;93.23
61488;BME280;47351;53.326;-6.298;2024-02-21T02:33:04;100333.07;;;8.65;93.67
61488;BME280;47351;53.326;-6.298;2024-02-21T02:36:17;100325.44;;;8.66;93.77
61488;BME280;47351;53.326;-6.298;2024-02-21T02:39:32;100307.84;;;8.64;93.97
61488;BME280;47351;53.326;-6.298;2024-02-21T02:42:37;100294.20;;;8.60;94.22
61488;BME280;47351;53.326;-6.298;2024-02-21T02:45:33;100270.30;;;8.57;94.60
61488;BME280;47351;53.326;-6.298;2024-02-21T02:48:47;100245.16;;;8.63;95.54
61488;BME280;47351;53.326;-6.298;2024-02-21T02:51:44;100229.29;;;8.74;95.76
61488;BME280;47351;53.326;-6.298;2024-02-21T02:54:51;100216.34;;;8.87;95.82
61488;BME280;47351;53.326;-6.298;2024-02-21T02:57:50;100201.39;;;8.98;95.63
61488;BME280;47351;53.326;-6.298;2024-02-21T03:00:45;100191.86;;;9.07;95.67
61488;BME280;47351;53.326;-6.298;2024-02-21T03:03:40;100177.66;;;9.13;95.62
61488;BME280;47351;53.326;-6.298;2024-02-21T03:06:36;100160.33;;;9.17;95.42
61488;BME280;47351;53.326;-6.298;2024-02-21T03:09:29;100149.91;;;9.20;95.31
61488;BME280;47351;53.326;-6.298;2024-02-21T03:12:41;100137.63;;;9.20;95.42
61488;BME280;47351;53.326;-6.298;2024-02-21T03:15:47;100126.88;;;9.19;95.52
61488;BME280;47351;53.326;-6.298;2024-02-21T03:18:49;100110.25;;;9.18;95.56
61488;BME280;47351;53.326;-6.298;2024-02-21T03:22:01;100090.04;;;9.17;95.84
61488;BME280;47351;53.326;-6.298;2024-02-21T03:25:02;100085.54;;;9.17;96.12
61488;BME280;47351;53.326;-6.298;2024-02-21T03:27:57;100065.35;;;9.18;96.35
61488;BME280;47351;53.326;-6.298;2024-02-21T03:31:04;100046.23;;;9.20;96.77
61488;BME280;47351;53.326;-6.298;2024-02-21T03:34:16;100023.45;;;9.23;97.32
61488;BME280;47351;53.326;-6.298;2024-02-21T03:37:23;100010.23;;;9.22;97.32
61488;BME280;47351;53.326;-6.298;2024-02-21T03:40:19;100012.27;;;9.18;97.49
61488;BME280;47351;53.326;-6.298;2024-02-21T03:43:30;99994.91;;;9.13;97.80
61488;BME280;47351;53.326;-6.298;2024-02-21T03:46:41;99987.67;;;9.05;98.29
61488;BME280;47351;53.326;-6.298;2024-02-21T03:49:52;99976.17;;;9.00;98.32
61488;BME280;47351;53.326;-6.298;2024-02-21T03:53:05;99949.38;;;8.96;98.72
61488;BME280;47351;53.326;-6.298;2024-02-21T03:56:11;99929.66;;;8.94;99.14
61488;BME280;47351;53.326;-6.298;2024-02-21T03:59:24;99918.39;;;8.93;99.38
61488;BME280;47351;53.326;-6.298;2024-02-21T04:02:37;99898.62;;;8.95;99.87
61488;BME280;47351;53.326;-6.298;2024-02-21T04:05:45;99885.67;;;8.94;99.90
61488;BME280;47351;53.326;-6.298;2024-02-21T04:08:59;99863.49;;;8.92;99.97
61488;BME280;47351;53.326;-6.298;2024-02-21T04:12:03;99847.68;;;8.89;100.00
61488;BME280;47351;53.326;-6.298;2024-02-21T04:15:09;99835.36;;;8.86;100.00
61488;BME280;47351;53.326;-6.298;2024-02-21T04:18:13;99820.96;;;8.84;100.00
61488;BME280;47351;53.326;-6.298;2024-02-21T04:21:19;99810.49;;;8.84;100.00
61488;BME280;47351;53.326;-6.298;2024-02-21T04:24:28;99801.57;;;8.86;100.00
61488;BME280;47351;53.326;-6.298;2024-02-21T04:27:23;99790.73;;;8.89;100.00
61488;BME280;47351;53.326;-6.298;2024-02-21T04:30:28;99771.20;;;8.91;100.00
61488;BME280;47351;53.326;-6.298;2024-02-21T04:33:34;99757.31;;;8.94;100.00
61488;BME280;47351;53.326;-6.298;2024-02-21T04:36:39;99749.33;;;8.99;100.00
61488;BME280;47351;53.326;-6.298;2024-02-21T04:39:46;99740.02;;;9.02;100.00
61488;BME280;47351;53.326;-6.298;2024-02-21T04:42:59;99729.45;;;9.05;100.00
61488;BME280;47351;53.326;-6.298;2024-02-21T04:46:10;99717.29;;;9.07;100.00
61488;BME280;47351;53.326;-6.298;2024-02-21T04:49:24;99701.33;;;9.11;100.00
61488;BME280;47351;53.326;-6.298;2024-02-21T04:52:37;99686.67;;;9.16;100.00
61488;BME280;47351;53.326;-6.298;2024-02-21T04:55:41;99669.69;;;9.22;100.00
61488;BME280;47351;53.326;-6.298;2024-02-21T04:58:47;99655.71;;;9.27;100.00
61488;BME280;47351;53.326;-6.298;2024-02-21T05:01:53;99642.17;;;9.32;100.00
61488;BME280;47351;53.326;-6.298;2024-02-21T05:04:59;99623.20;;;9.35;100.00
61488;BME280;47351;53.326;-6.298;2024-02-21T05:07:56;99603.23;;;9.38;100.00
61488;BME280;47351;53.326;-6.298;2024-02-21T05:11:10;99584.91;;;9.45;100.00
61488;BME280;47351;53.326;-6.298;2024-02-21T05:14:02;99581.19;;;9.56;100.00
61488;BME280;47351;53.326;-6.298;2024-02-21T05:17:16;99575.46;;;9.68;100.00
61488;BME280;47351;53.326;-6.298;2024-02-21T05:20:28;99563.71;;;9.80;100.00
61488;BME280;47351;53.326;-6.298;2024-02-21T05:23:32;99550.68;;;9.91;100.00
61488;BME280;47351;53.326;-6.298;2024-02-21T05:26:39;99546.86;;;10.02;100.00
61488;BME280;47351;53.326;-6.298;2024-02-21T05:29:52;99533.48;;;10.12;100.00
61488;BME280;47351;53.326;-6.298;2024-02-21T05:32:51;99527.01;;;10.20;100.00
61488;BME280;47351;53.326;-6.298;2024-02-21T05:35:49;99513.19;;;10.26;100.00
61488;BME280;47351;53.326;-6.298;2024-02-21T05:38:44;99496.86;;;10.30;100.00
61488;BME280;47351;53.326;-6.298;2024-02-21T05:41:51;99484.79;;;10.35;100.00
61488;BME280;47351;53.326;-6.298;2024-02-21T05:44:57;99475.48;;;10.41;100.00
61488;BME280;47351;53.326;-6.298;2024-02-21T05:47:52;99457.98;;;10.47;100.00
61488;BME280;47351;53.326;-6.298;2024-02-21T05:51:04;99443.74;;;10.51;100.00
61488;BME280;47351;53.326;-6.298;2024-02-21T05:54:17;99436.05;;;10.56;100.00
61488;BME280;47351;53.326;-6.298;2024-02-21T05:57:29;99417.41;;;10.60;100.00
61488;BME280;47351;53.326;-6.298;2024-02-21T06:00:26;99407.77;;;10.65;100.00
61488;BME280;47351;53.326;-6.298;2024-02-21T06:03:19;99400.15;;;10.67;100.00
61488;BME280;47351;53.326;-6.298;2024-02-21T06:06:34;99385.30;;;10.69;100.00
61488;BME280;47351;53.326;-6.298;2024-02-21T06:09:31;99360.69;;;10.71;100.00
61488;BME280;47351;53.326;-6.298;2024-02-21T06:12:35;99340.54;;;10.75;100.00
61488;BME280;47351;53.326;-6.298;2024-02-21T06:15:49;99334.89;;;10.80;100.00
61488;BME280;47351;53.326;-6.298;2024-02-21T06:18:47;99329.86;;;10.83;100.00
61488;BME280;47351;53.326;-6.298;2024-02-21T06:21:43;99321.70;;;10.87;100.00
61488;BME280;47351;53.326;-6.298;2024-02-21T06:24:40;99307.84;;;10.90;100.00
61488;BME280;47351;53.326;-6.298;2024-02-21T06:27:33;99294.67;;;10.93;100.00
61488;BME280;47351;53.326;-6.298;2024-02-21T06:30:31;99276.98;;;10.95;100.00
61488;BME280;47351;53.326;-6.298;2024-02-21T06:33:35;99260.73;;;10.98;100.00
61488;BME280;47351;53.326;-6.298;2024-02-21T06:36:39;99242.80;;;10.99;100.00
61488;BME280;47351;53.326;-6.298;2024-02-21T06:39:50;99229.02;;;11.01;100.00
61488;BME280;47351;53.326;-6.298;2024-02-21T06:42:44;99230.39;;;11.03;100.00
61488;BME280;47351;53.326;-6.298;2024-02-21T06:45:57;99223.65;;;11.05;100.00
61488;BME280;47351;53.326;-6.298;2024-02-21T06:49:06;99211.13;;;11.08;100.00
61488;BME280;47351;53.326;-6.298;2024-02-21T06:52:21;99199.77;;;11.11;100.00
61488;BME280;47351;53.326;-6.298;2024-02-21T06:55:22;99184.48;;;11.14;100.00
61488;BME280;47351;53.326;-6.298;2024-02-21T06:58:35;99174.27;;;11.19;100.00
61488;BME280;47351;53.326;-6.298;2024-02-21T07:01:31;99172.01;;;11.22;100.00
61488;BME280;47351;53.326;-6.298;2024-02-21T07:04:32;99158.64;;;11.26;100.00
61488;BME280;47351;53.326;-6.298;2024-02-21T07:07:25;99156.95;;;11.28;100.00
61488;BME280;47351;53.326;-6.298;2024-02-21T07:10:18;99144.47;;;11.31;100.00
61488;BME280;47351;53.326;-6.298;2024-02-21T07:13:11;99127.66;;;11.32;100.00
61488;BME280;47351;53.326;-6.298;2024-02-21T07:16:05;99111.26;;;11.33;100.00
61488;BME280;47351;53.326;-6.298;2024-02-21T07:18:58;99102.49;;;11.35;100.00
61488;BME280;47351;53.326;-6.298;2024-02-21T07:21:51;99093.38;;;11.36;100.00
61488;BME280;47351;53.326;-6.298;2024-02-21T07:24:56;99085.50;;;11.37;100.00
61488;BME280;47351;53.326;-6.298;2024-02-21T07:27:57;99082.99;;;11.37;100.00
61488;BME280;47351;53.326;-6.298;2024-02-21T07:30:58;99071.70;;;11.38;100.00
61488;BME280;47351;53.326;-6.298;2024-02-21T07:33:53;99072.12;;;11.39;100.00
61488;BME280;47351;53.326;-6.298;2024-02-21T07:36:51;99066.76;;;11.40;100.00
61488;BME280;47351;53.326;-6.298;2024-02-21T07:39:44;99054.77;;;11.40;100.00
61488;BME280;47351;53.326;-6.298;2024-02-21T07:42:36;99042.23;;;11.42;100.00
61488;BME280;47351;53.326;-6.298;2024-02-21T07:45:42;99035.18;;;11.43;100.00
61488;BME280;47351;53.326;-6.298;2024-02-21T07:48:39;99027.02;;;11.42;100.00
61488;BME280;47351;53.326;-6.298;2024-02-21T07:51:43;99012.23;;;11.39;100.00
61488;BME280;47351;53.326;-6.298;2024-02-21T07:54:46;98994.78;;;11.37;100.00
61488;BME280;47351;53.326;-6.298;2024-02-21T07:57:42;98994.52;;;11.37;100.00
61488;BME280;47351;53.326;-6.298;2024-02-21T08:00:47;98990.83;;;11.35;100.00
61488;BME280;47351;53.326;-6.298;2024-02-21T08:03:53;98983.15;;;11.33;100.00
61488;BME280;47351;53.326;-6.298;2024-02-21T08:07:06;98981.63;;;11.34;100.00
61488;BME280;47351;53.326;-6.298;2024-02-21T08:10:15;98981.27;;;11.37;100.00
61488;BME280;47351;53.326;-6.298;2024-02-21T08:13:17;98966.91;;;11.40;100.00
61488;BME280;47351;53.326;-6.298;2024-02-21T08:16:13;98960.27;;;11.44;100.00
61488;BME280;47351;53.326;-6.298;2024-02-21T08:19:22;98955.36;;;11.49;100.00
61488;BME280;47351;53.326;-6.298;2024-02-21T08:22:16;98940.23;;;11.55;100.00
61488;BME280;47351;53.326;-6.298;2024-02-21T08:25:14;98917.88;;;11.59;100.00
61488;BME280;47351;53.326;-6.298;2024-02-21T08:28:20;98927.02;;;11.64;100.00
61488;BME280;47351;53.326;-6.298;2024-02-21T08:32:13;98923.23;;;11.69;100.00
61488;BME280;47351;53.326;-6.298;2024-02-21T08:35:12;98921.41;;;11.74;100.00
61488;BME280;47351;53.326;-6.298;2024-02-21T08:38:09;98914.75;;;11.81;100.00
61488;BME280;47351;53.326;-6.298;2024-02-21T08:41:08;98891.48;;;11.88;100.00
61488;BME280;47351;53.326;-6.298;2024-02-21T08:44:11;98896.83;;;11.96;100.00
61488;BME280;47351;53.326;-6.298;2024-02-21T08:48:02;98886.59;;;12.09;100.00
61488;BME280;47351;53.326;-6.298;2024-02-21T08:50:59;98882.35;;;12.16;100.00
61488;BME280;47351;53.326;-6.298;2024-02-21T08:53:54;98882.27;;;12.23;100.00
61488;BME280;47351;53.326;-6.298;2024-02-21T08:56:46;98876.84;;;12.29;100.00
61488;BME280;47351;53.326;-6.298;2024-02-21T08:59:44;98876.90;;;12.35;100.00
61488;BME280;47351;53.326;-6.298;2024-02-21T09:02:41;98873.31;;;12.41;100.00
61488;BME280;47351;53.326;-6.298;2024-02-21T09:05:36;98869.03;;;12.47;100.00
61488;BME280;47351;53.326;-6.298;2024-02-21T09:08:29;98861.44;;;12.52;100.00
61488;BME280;47351;53.326;-6.298;2024-02-21T09:11:22;98862.01;;;12.60;100.00
61488;BME280;47351;53.326;-6.298;2024-02-21T09:14:15;98864.27;;;12.69;99.99
61488;BME280;47351;53.326;-6.298;2024-02-21T09:17:12;98875.07;;;12.79;99.92
61488;BME280;47351;53.326;-6.298;2024-02-21T09:20:10;98864.34;;;12.82;99.72
61488;BME280;47351;53.326;-6.298;2024-02-21T09:23:08;98878.27;;;12.81;99.58
61488;BME280;47351;53.326;-6.298;2024-02-21T09:26:03;98880.27;;;12.84;99.34
61488;BME280;47351;53.326;-6.298;2024-02-21T09:28:56;98879.70;;;12.87;99.13
61488;BME280;47351;53.326;-6.298;2024-02-21T09:31:52;98874.36;;;12.93;99.13
61488;BME280;47351;53.326;-6.298;2024-02-21T09:35:07;98878.38;;;13.04;98.89
61488;BME280;47351;53.326;-6.298;2024-02-21T09:38:05;98874.77;;;13.17;98.60
61488;BME280;47351;53.326;-6.298;2024-02-21T09:41:07;98881.81;;;13.27;98.10
61488;BME280;47351;53.326;-6.298;2024-02-21T09:44:03;98866.23;;;13.35;98.06
61488;BME280;47351;53.326;-6.298;2024-02-21T09:47:01;98868.69;;;13.43;97.50
61488;BME280;47351;53.326;-6.298;2024-02-21T09:49:56;98875.13;;;13.52;97.17
61488;BME280;47351;53.326;-6.298;2024-02-21T09:52:50;98870.08;;;13.61;96.79
61488;BME280;47351;53.326;-6.298;2024-02-21T09:56:18;98872.19;;;13.79;96.40
61488;BME280;47351;53.326;-6.298;2024-02-21T09:59:15;98863.52;;;13.90;95.37
61488;BME280;47351;53.326;-6.298;2024-02-21T10:02:11;98859.19;;;13.91;95.35
61488;BME280;47351;53.326;-6.298;2024-02-21T10:05:06;98858.95;;;13.87;95.05
61488;BME280;47351;53.326;-6.298;2024-02-21T10:08:00;98866.14;;;13.88;95.17
61488;BME280;47351;53.326;-6.298;2024-02-21T10:10:54;98874.67;;;13.95;95.14
61488;BME280;47351;53.326;-6.298;2024-02-21T10:14:10;98881.21;;;13.98;94.85
61488;BME280;47351;53.326;-6.298;2024-02-21T10:17:06;98882.70;;;13.94;95.15
61488;BME280;47351;53.326;-6.298;2024-02-21T10:20:12;98883.34;;;13.93;95.16
61488;BME280;47351;53.326;-6.298;2024-02-21T10:23:07;98884.16;;;13.89;95.19
61488;BME280;47351;53.326;-6.298;2024-02-21T10:26:09;98877.73;;;13.90;95.33
61488;BME280;47351;53.326;-6.298;2024-02-21T10:29:03;98883.83;;;14.01;95.15
61488;BME280;47351;53.326;-6.298;2024-02-21T10:32:05;98888.36;;;14.22;94.70
61488;BME280;47351;53.326;-6.298;2024-02-21T10:35:04;98889.63;;;14.47;93.83
61488;BME280;47351;53.326;-6.298;2024-02-21T10:37:57;98903.09;;;14.69;92.70
61488;BME280;47351;53.326;-6.298;2024-02-21T10:40:51;98905.33;;;14.75;92.13
61488;BME280;47351;53.326;-6.298;2024-02-21T10:43:49;98915.98;;;14.60;91.93
61488;BME280;47351;53.326;-6.298;2024-02-21T10:46:42;98921.80;;;14.45;92.82
61488;BME280;47351;53.326;-6.298;2024-02-21T10:49:40;98938.34;;;14.32;93.13
61488;BME280;47351;53.326;-6.298;2024-02-21T10:52:43;98941.77;;;14.26;93.20
61488;BME280;47351;53.326;-6.298;2024-02-21T10:55:44;98941.87;;;14.29;93.35
61488;BME280;47351;53.326;-6.298;2024-02-21T10:58:41;98959.78;;;14.31;92.85
61488;BME280;47351;53.326;-6.298;2024-02-21T11:01:34;98965.49;;;14.16;93.27
61488;BME280;47351;53.326;-6.298;2024-02-21T11:04:29;98969.23;;;14.04;93.68
61488;BME280;47351;53.326;-6.298;2024-02-21T11:07:23;98974.59;;;14.02;94.13
61488;BME280;47351;53.326;-6.298;2024-02-21T11:10:26;98974.69;;;14.00;93.94
61488;BME280;47351;53.326;-6.298;2024-02-21T11:13:19;98980.20;;;14.00;93.43
61488;BME280;47351;53.326;-6.298;2024-02-21T11:16:24;98993.14;;;14.14;92.82
61488;BME280;47351;53.326;-6.298;2024-02-21T11:19:23;98995.30;;;16.30;84.26
61488;BME280;47351;53.326;-6.298;2024-02-21T11:22:19;98991.57;;;16.93;79.82
61488;BME280;47351;53.326;-6.298;2024-02-21T11:25:23;99009.46;;;16.74;78.78
61488;BME280;47351;53.326;-6.298;2024-02-21T11:28:26;99012.77;;;16.49;77.37
61488;BME280;47351;53.326;-6.298;2024-02-21T11:31:19;99013.22;;;16.35;76.64
61488;BME280;47351;53.326;-6.298;2024-02-21T11:34:19;99022.54;;;15.82;76.52
61488;BME280;47351;53.326;-6.298;2024-02-21T11:37:17;99028.20;;;15.26;78.55
61488;BME280;47351;53.326;-6.298;2024-02-21T11:40:10;99019.49;;;14.98;79.87
61488;BME280;47351;53.326;-6.298;2024-02-21T11:43:03;99020.44;;;14.99;80.20
61488;BME280;47351;53.326;-6.298;2024-02-21T11:46:01;99022.10;;;15.11;79.50
61488;BME280;47351;53.326;-6.298;2024-02-21T11:48:55;99025.44;;;14.91;80.23
61488;BME280;47351;53.326;-6.298;2024-02-21T11:51:59;99025.91;;;14.73;81.63
61488;BME280;47351;53.326;-6.298;2024-02-21T11:54:52;99030.67;;;15.01;80.59
61488;BME280;47351;53.326;-6.298;2024-02-21T11:57:49;99027.48;;;16.15;77.32
61488;BME280;47351;53.326;-6.298;2024-02-21T12:00:42;99017.93;;;19.03;68.55
61488;BME280;47351;53.326;-6.298;2024-02-21T12:03:34;99011.92;;;21.66;62.26
61488;BME280;47351;53.326;-6.298;2024-02-21T12:06:27;99001.21;;;23.29;51.77
61488;BME280;47351;53.326;-6.298;2024-02-21T12:09:20;99013.29;;;24.08;47.61
61488;BME280;47351;53.326;-6.298;2024-02-21T12:12:12;99017.31;;;23.68;46.84
61488;BME280;47351;53.326;-6.298;2024-02-21T12:15:07;99026.03;;;21.80;49.53
61488;BME280;47351;53.326;-6.298;2024-02-21T12:17:59;99029.40;;;20.08;53.63
61488;BME280;47351;53.326;-6.298;2024-02-21T12:20:54;99034.48;;;18.77;57.14
61488;BME280;47351;53.326;-6.298;2024-02-21T12:23:47;99041.74;;;17.66;60.15
61488;BME280;47351;53.326;-6.298;2024-02-21T12:26:39;99046.80;;;16.64;62.70
61488;BME280;47351;53.326;-6.298;2024-02-21T12:29:31;99050.50;;;16.06;64.78
61488;BME280;47351;53.326;-6.298;2024-02-21T12:32:24;99047.19;;;15.79;65.93
61488;BME280;47351;53.326;-6.298;2024-02-21T12:35:17;99044.92;;;15.35;66.66
61488;BME280;47351;53.326;-6.298;2024-02-21T12:38:10;99055.67;;;15.01;67.84
61488;BME280;47351;53.326;-6.298;2024-02-21T12:41:05;99053.46;;;14.77;69.20
61488;BME280;47351;53.326;-6.298;2024-02-21T12:43:58;99068.95;;;14.46;69.85
61488;BME280;47351;53.326;-6.298;2024-02-21T12:46:53;99062.69;;;14.09;70.79
61488;BME280;47351;53.326;-6.298;2024-02-21T12:49:48;99070.93;;;13.85;71.97
61488;BME280;47351;53.326;-6.298;2024-02-21T12:52:45;99071.30;;;13.72;72.90
61488;BME280;47351;53.326;-6.298;2024-02-21T12:55:38;99065.13;;;13.59;73.39
61488;BME280;47351;53.326;-6.298;2024-02-21T12:58:33;99063.38;;;13.51;73.59
61488;BME280;47351;53.326;-6.298;2024-02-21T13:01:29;99066.98;;;13.44;74.16
61488;BME280;47351;53.326;-6.298;2024-02-21T13:04:24;99073.88;;;13.41;74.79
61488;BME280;47351;53.326;-6.298;2024-02-21T13:07:23;99081.23;;;13.39;75.08
61488;BME280;47351;53.326;-6.298;2024-02-21T13:10:17;99079.31;;;13.48;75.41
61488;BME280;47351;53.326;-6.298;2024-02-21T13:13:10;99078.96;;;13.90;75.00
61488;BME280;47351;53.326;-6.298;2024-02-21T13:16:06;99073.92;;;14.34;73.35
61488;BME280;47351;53.326;-6.298;2024-02-21T13:19:01;99073.11;;;14.50;71.62
61488;BME280;47351;53.326;-6.298;2024-02-21T13:21:57;99077.79;;;14.50;71.70
61488;BME280;47351;53.326;-6.298;2024-02-21T13:24:51;99083.93;;;14.47;72.18
61488;BME280;47351;53.326;-6.298;2024-02-21T13:27:47;99088.69;;;14.44;72.67
61488;BME280;47351;53.326;-6.298;2024-02-21T13:30:40;99093.64;;;14.42;71.50
61488;BME280;47351;53.326;-6.298;2024-02-21T13:33:35;99096.23;;;14.31;71.65
61488;BME280;47351;53.326;-6.298;2024-02-21T13:36:28;99090.31;;;14.23;71.08
61488;BME280;47351;53.326;-6.298;2024-02-21T13:39:23;99088.98;;;14.11;71.08
61488;BME280;47351;53.326;-6.298;2024-02-21T13:42:19;99103.69;;;14.04;71.68
61488;BME280;47351;53.326;-6.298;2024-02-21T13:45:12;99093.80;;;14.02;71.84
61488;BME280;47351;53.326;-6.298;2024-02-21T13:48:08;99099.55;;;14.17;71.23
61488;BME280;47351;53.326;-6.298;2024-02-21T13:51:02;99108.59;;;14.21;70.28
61488;BME280;47351;53.326;-6.298;2024-02-21T13:53:58;99100.64;;;14.25;70.75
61488;BME280;47351;53.326;-6.298;2024-02-21T13:56:51;99089.38;;;14.47;71.30
61488;BME280;47351;53.326;-6.298;2024-02-21T13:59:44;99095.57;;;14.50;71.68
61488;BME280;47351;53.326;-6.298;2024-02-21T14:02:36;99093.11;;;14.37;72.12
61488;BME280;47351;53.326;-6.298;2024-02-21T14:05:30;99096.39;;;14.14;72.71
61488;BME280;47351;53.326;-6.298;2024-02-21T14:08:25;99096.86;;;14.12;73.01
61488;BME280;47351;53.326;-6.298;2024-02-21T14:11:18;99105.14;;;14.13;73.00
61488;BME280;47351;53.326;-6.298;2024-02-21T14:14:11;99114.75;;;14.11;71.91
61488;BME280;47351;53.326;-6.298;2024-02-21T14:17:05;99125.45;;;14.14;69.76
61488;BME280;47351;53.326;-6.298;2024-02-21T14:19:58;99121.27;;;14.10;68.48
61488;BME280;47351;53.326;-6.298;2024-02-21T14:22:51;99125.19;;;14.12;67.65
61488;BME280;47351;53.326;-6.298;2024-02-21T14:25:43;99124.64;;;14.22;67.64
61488;BME280;47351;53.326;-6.298;2024-02-21T14:28:36;99123.30;;;14.41;68.14
61488;BME280;47351;53.326;-6.298;2024-02-21T14:31:28;99120.38;;;14.51;67.44
61488;BME280;47351;53.326;-6.298;2024-02-21T14:34:21;99122.80;;;14.54;67.17
61488;BME280;47351;53.326;-6.298;2024-02-21T14:37:20;99138.02;;;14.40;67.65
61488;BME280;47351;53.326;-6.298;2024-02-21T14:40:13;99146.48;;;14.25;68.59
61488;BME280;47351;53.326;-6.298;2024-02-21T14:43:07;99140.67;;;14.07;68.34
61488;BME280;47351;53.326;-6.298;2024-02-21T14:45:59;99138.55;;;13.93;68.53
61488;BME280;47351;53.326;-6.298;2024-02-21T14:48:55;99144.96;;;13.99;67.42
61488;BME280;47351;53.326;-6.298;2024-02-21T14:51:48;99147.30;;;13.95;66.95
61488;BME280;47351;53.326;-6.298;2024-02-21T14:54:40;99152.95;;;13.87;66.90
61488;BME280;47351;53.326;-6.298;2024-02-21T14:57:37;99147.90;;;13.75;67.00
61488;BME280;47351;53.326;-6.298;2024-02-21T15:00:32;99147.27;;;13.63;67.71
61488;BME280;47351;53.326;-6.298;2024-02-21T15:03:29;99147.56;;;13.56;68.26
61488;BME280;47351;53.326;-6.298;2024-02-21T15:06:22;99145.92;;;13.44;68.26
61488;BME280;47351;53.326;-6.298;2024-02-21T15:09:15;99153.61;;;13.27;68.50
61488;BME280;47351;53.326;-6.298;2024-02-21T15:12:09;99157.91;;;13.11;68.92
61488;BME280;47351;53.326;-6.298;2024-02-21T15:15:02;99156.99;;;13.04;69.57
61488;BME280;47351;53.326;-6.298;2024-02-21T15:17:55;99155.41;;;13.05;69.75
61488;BME280;47351;53.326;-6.298;2024-02-21T15:20:47;99142.37;;;13.02;70.10
61488;BME280;47351;53.326;-6.298;2024-02-21T15:23:41;99144.98;;;13.09;70.10
61488;BME280;47351;53.326;-6.298;2024-02-21T15:26:37;99154.00;;;13.17;69.67
61488;BME280;47351;53.326;-6.298;2024-02-21T15:29:29;99158.14;;;13.17;69.23
61488;BME280;47351;53.326;-6.298;2024-02-21T15:32:22;99152.25;;;13.12;69.24
61488;BME280;47351;53.326;-6.298;2024-02-21T15:35:21;99142.36;;;13.03;68.55
61488;BME280;47351;53.326;-6.298;2024-02-21T15:38:18;99140.45;;;12.93;68.87